MMCS

Abraham González International Airport

Ciudad Juárez, Mexico
TAF MMCS 170419Z 1706/1806 12005KT P6SM SCT040 OVC090 PROB40 1711/1715 5SM -RA BKN030 FM171800 18010KT P6SM BKN040 BKN090 OVC250 FM180500 16005KT P6SM SCT090 BKN250
Issued Valid From Valid To
Dec-17 @ 04:19 UTC
(9 hours ago)
Dec-17 @ 06:00 UTC
(7 hours ago)
Dec-18 @ 06:00 UTC
(in 17 hours)
Dec-17 @ 06:00 to Dec-17 @ 18:00
TAF MMCS 170419Z 1706/1806 12005KT P6SM SCT040 OVC090
Wind Visibility Clouds
120° at 5 knots Greater than 6 miles
  • Scattered at 4,000' AGL
  • Overcast at 9,000' AGL
Probable  (Probability 40%) Dec-17 @ 11:00 to Dec-17 @ 15:00
PROB40 1711/1715 5SM -RA BKN030
Visibility Clouds Conditions
5 miles
  • Broken at 3,000' AGL
  • Light Rain
From Dec-17 @ 18:00 to Dec-18 @ 05:00
FM171800 18010KT P6SM BKN040 BKN090 OVC250
Wind Visibility Clouds
180° at 10 knots Greater than 6 miles
  • Broken at 4,000' AGL
  • Broken at 9,000' AGL
  • Overcast at 25,000' AGL
From Dec-18 @ 05:00 to Dec-18 @ 06:00
FM180500 16005KT P6SM SCT090 BKN250
Wind Visibility Clouds
160° at 5 knots Greater than 6 miles
  • Scattered at 9,000' AGL
  • Broken at 25,000' AGL
TAF MMCS 170419Z 1706/1806 12005KT P6SM SCT040 OVC090 PROB40 1711/1715 5SM -RA BKN030 FM171800 18010KT P6SM BKN040 BKN090 OVC250 FM180500 16005KT P6SM SCT090 BKN250
Issued Dec-17 @ 04:19 UTC
(9 hours ago)
Valid From Dec-17 @ 06:00 UTC
(7 hours ago)
Valid To Dec-18 @ 06:00 UTC
(in 17 hours)
Dec-17 @ 06:00 - Dec-17 @ 18:00
Wind Visibility
120° at 5 knots Greater than 6 miles
Clouds
  • Scattered at 4,000' AGL
  • Overcast at 9,000' AGL
Probability 40% Probable Dec-17 @ 11:00 - Dec-17 @ 15:00
Clouds
  • Broken at 3,000' AGL
Conditions
  • Light Rain
From Dec-17 @ 18:00 - Dec-18 @ 05:00
Wind Visibility
180° at 10 knots Greater than 6 miles
Clouds
  • Broken at 4,000' AGL
  • Broken at 9,000' AGL
  • Overcast at 25,000' AGL
From Dec-18 @ 05:00 - Dec-18 @ 06:00
Wind Visibility
160° at 5 knots Greater than 6 miles
Clouds
  • Scattered at 9,000' AGL
  • Broken at 25,000' AGL